Time;durP1;ratioP1;P1;durP2;ratioP2;P2;SDS_P1;SDS_P2;PMS_P1;PMS_P2;Temp;Humidity;BMP_temperature;BMP_pressure;BME280_temperature;BME280_humidity;BME280_pressure;Samples;Min_cycle;Max_cycle;Signal;HPM_P1;HPM_P2
2020/12/03 00:00:33;;;;;;;31.03;16.33;;;-0.10;99.90;;;;;;5073516;28;20232;-71
2020/12/03 00:03:05;;;;;;;27.80;15.27;;;0.00;99.90;;;;;;5067467;28;20202;-72
2020/12/03 00:05:32;;;;;;;27.23;15.20;;;0.00;99.90;;;;;;5072645;28;20229;-71
2020/12/03 00:07:59;;;;;;;27.33;14.93;;;0.00;99.90;;;;;;5072906;28;20691;-71
2020/12/03 00:13:15;;;;;;;31.80;17.10;;;0.00;99.90;;;;;;5072053;28;20229;-71
2020/12/03 00:15:41;;;;;;;29.83;16.33;;;0.00;99.90;;;;;;5076296;28;20246;-71
2020/12/03 00:18:09;;;;;;;31.00;16.43;;;0.00;99.90;;;;;;5078441;28;20239;-71
2020/12/03 00:20:37;;;;;;;28.17;15.33;;;0.00;99.90;;;;;;5070946;28;20239;-71
2020/12/03 00:23:05;;;;;;;30.27;17.43;;;0.00;99.90;;;;;;5077800;28;20207;-71
2020/12/03 00:25:31;;;;;;;28.87;16.00;;;0.00;99.90;;;;;;5077318;28;20237;-71
2020/12/03 00:27:58;;;;;;;28.00;16.77;;;0.10;99.90;;;;;;5080181;28;20244;-71
2020/12/03 00:30:25;;;;;;;30.03;15.27;;;0.10;99.90;;;;;;5074616;28;20680;-71
2020/12/03 00:32:53;;;;;;;32.00;17.27;;;0.10;99.90;;;;;;5073281;28;20588;-72
2020/12/03 00:35:22;;;;;;;27.17;15.37;;;0.10;99.90;;;;;;5074109;28;20204;-72
2020/12/03 00:37:50;;;;;;;31.67;16.83;;;0.20;99.90;;;;;;5075396;28;20249;-72
2020/12/03 00:40:17;;;;;;;28.43;16.70;;;0.20;99.90;;;;;;5077432;28;20231;-72
2020/12/03 00:42:44;;;;;;;27.83;16.67;;;0.20;99.90;;;;;;5065652;28;20197;-71
2020/12/03 00:45:12;;;;;;;34.00;17.77;;;0.20;99.90;;;;;;5077442;28;20248;-71
2020/12/03 00:47:39;;;;;;;28.87;17.77;;;0.20;99.90;;;;;;5081501;28;20250;-72
2020/12/03 00:50:08;;;;;;;31.60;17.23;;;0.20;99.90;;;;;;5080679;28;20291;-72
2020/12/03 00:52:39;;;;;;;33.47;18.10;;;0.20;99.90;;;;;;5075873;28;20228;-71
2020/12/03 00:55:05;;;;;;;32.87;18.43;;;0.20;99.90;;;;;;5080937;28;20229;-71
2020/12/03 00:57:32;;;;;;;32.00;17.67;;;0.20;99.90;;;;;;5080787;28;20625;-70
2020/12/03 01:00:00;;;;;;;29.00;15.97;;;0.30;99.90;;;;;;5080746;28;20197;-71
2020/12/03 01:02:27;;;;;;;29.80;17.30;;;0.30;99.90;;;;;;5082275;28;20334;-71
2020/12/03 01:04:53;;;;;;;32.27;17.47;;;0.30;99.90;;;;;;5081701;28;20236;-71
2020/12/03 01:07:20;;;;;;;30.07;17.13;;;0.30;99.90;;;;;;5080074;28;20217;-70
2020/12/03 01:09:47;;;;;;;31.77;17.47;;;0.40;99.90;;;;;;5083870;28;20606;-71
2020/12/03 01:12:14;;;;;;;32.53;16.70;;;0.40;99.90;;;;;;5076239;28;20229;-70
2020/12/03 01:14:40;;;;;;;31.27;16.13;;;0.40;99.90;;;;;;5081707;28;20239;-70
2020/12/03 01:17:08;;;;;;;28.90;15.63;;;0.50;99.90;;;;;;5080105;28;20609;-71
2020/12/03 01:19:35;;;;;;;30.20;16.30;;;0.50;99.90;;;;;;5074025;28;20558;-71
2020/12/03 01:22:02;;;;;;;29.37;15.40;;;0.50;99.90;;;;;;5082983;28;20653;-72
2020/12/03 01:24:29;;;;;;;29.33;16.17;;;0.50;99.90;;;;;;5080680;28;20240;-70
2020/12/03 01:26:56;;;;;;;30.30;16.30;;;0.50;99.90;;;;;;5080486;28;20665;-71
2020/12/03 01:29:23;;;;;;;26.23;15.03;;;0.50;99.90;;;;;;5078159;28;20209;-70
2020/12/03 01:31:50;;;;;;;29.83;16.57;;;0.50;99.90;;;;;;5076200;28;20726;-70
2020/12/03 01:34:17;;;;;;;27.77;14.97;;;0.50;99.90;;;;;;5062206;28;20233;-70
2020/12/03 01:36:43;;;;;;;22.50;12.77;;;0.50;99.90;;;;;;5076255;28;20733;-71
2020/12/03 01:39:10;;;;;;;23.60;14.43;;;0.50;99.90;;;;;;5074528;28;20232;-71
2020/12/03 01:41:37;;;;;;;28.07;15.80;;;0.40;99.90;;;;;;5070183;28;20206;-71
2020/12/03 01:44:04;;;;;;;26.63;16.17;;;0.40;99.90;;;;;;5075730;28;20240;-72
2020/12/03 01:46:31;;;;;;;29.90;16.67;;;0.40;99.90;;;;;;5073956;28;20255;-70
2020/12/03 01:49:04;;;;;;;29.57;16.33;;;0.40;99.90;;;;;;5074825;28;20240;-72
2020/12/03 01:51:35;;;;;;;35.17;16.67;;;0.40;99.90;;;;;;5075485;28;20723;-70
2020/12/03 01:54:05;;;;;;;28.70;16.03;;;0.40;99.90;;;;;;5075777;28;20278;-72
2020/12/03 01:56:56;;;;;;;33.47;16.10;;;0.50;99.90;;;;;;5075656;28;20205;-71
2020/12/03 02:32:02;;;;;;;30.90;17.07;;;0.40;99.90;;;;;;5059406;28;20256;-71
2020/12/03 02:34:28;;;;;;;35.10;17.77;;;0.50;99.90;;;;;;5095317;28;20205;-72
2020/12/03 02:36:58;;;;;;;35.73;19.70;;;0.40;99.90;;;;;;5092928;28;20208;-71
2020/12/03 02:39:25;;;;;;;30.50;17.57;;;0.50;99.90;;;;;;5070448;28;20233;-71
2020/12/03 02:41:51;;;;;;;37.60;20.50;;;0.50;99.90;;;;;;5082748;28;20240;-71
2020/12/03 02:44:18;;;;;;;40.43;20.93;;;0.60;99.90;;;;;;5076970;28;20206;-72
2020/12/03 02:46:45;;;;;;;37.10;20.70;;;0.50;99.90;;;;;;5081182;28;20288;-71
2020/12/03 02:49:12;;;;;;;39.53;20.70;;;0.50;99.90;;;;;;5083033;28;20255;-72
2020/12/03 02:51:40;;;;;;;39.37;21.73;;;0.50;99.90;;;;;;5077352;28;20565;-72
2020/12/03 02:54:08;;;;;;;39.83;22.80;;;0.50;99.90;;;;;;5075133;28;20228;-72
2020/12/03 02:56:34;;;;;;;44.60;22.87;;;0.50;99.90;;;;;;5076174;28;20237;-72
2020/12/03 02:59:01;;;;;;;38.50;21.23;;;0.50;99.90;;;;;;5075263;28;20201;-72
2020/12/03 03:01:27;;;;;;;41.90;22.97;;;0.50;99.90;;;;;;5063724;28;20659;-72
2020/12/03 03:03:54;;;;;;;32.27;18.53;;;0.50;99.90;;;;;;5070386;28;20240;-73
2020/12/03 03:06:21;;;;;;;38.13;21.20;;;0.50;99.90;;;;;;5082621;28;20244;-72
2020/12/03 03:08:47;;;;;;;39.00;22.30;;;0.50;99.90;;;;;;5088558;28;20205;-72
2020/12/03 03:11:14;;;;;;;34.97;19.13;;;0.40;99.90;;;;;;5078997;28;20362;-72
2020/12/03 03:13:41;;;;;;;37.23;21.60;;;0.40;99.90;;;;;;5087330;28;20246;-71
2020/12/03 03:16:07;;;;;;;34.70;20.50;;;0.40;99.90;;;;;;5093583;28;20240;-71
2020/12/03 03:18:34;;;;;;;37.87;20.97;;;0.40;99.90;;;;;;5094610;28;20211;-71
2020/12/03 03:21:00;;;;;;;33.27;20.43;;;0.40;99.90;;;;;;5077010;28;20249;-71
2020/12/03 03:23:28;;;;;;;38.77;19.73;;;0.40;99.90;;;;;;5094399;28;20247;-71
2020/12/03 03:25:54;;;;;;;37.70;19.33;;;0.40;99.90;;;;;;5088162;28;20236;-72
2020/12/03 03:35:25;;;;;;;34.27;18.43;;;0.30;99.90;;;;;;5040194;28;20574;-71
2020/12/03 03:37:52;;;;;;;31.57;19.20;;;0.40;99.90;;;;;;5033757;28;20253;-72
2020/12/03 03:40:19;;;;;;;37.60;19.67;;;0.40;99.90;;;;;;5037361;28;20241;-72
2020/12/03 03:42:46;;;;;;;30.53;17.77;;;0.40;99.90;;;;;;5037135;28;20237;-71
2020/12/03 03:45:12;;;;;;;33.30;18.57;;;0.40;99.90;;;;;;5035612;28;20242;-72
2020/12/03 03:47:40;;;;;;;33.20;18.27;;;0.50;99.90;;;;;;5034224;28;20240;-72
2020/12/03 03:50:08;;;;;;;29.40;17.90;;;0.40;99.90;;;;;;5034302;28;20214;-71
2020/12/03 03:52:35;;;;;;;31.07;18.37;;;0.40;99.90;;;;;;5042943;28;20265;-73
2020/12/03 03:55:01;;;;;;;32.53;19.33;;;0.40;99.90;;;;;;5040334;28;20206;-71
2020/12/03 03:57:29;;;;;;;28.07;16.73;;;0.40;99.90;;;;;;5033768;28;20198;-72
2020/12/03 03:59:55;;;;;;;31.03;17.90;;;0.50;99.90;;;;;;5030000;28;20264;-72
2020/12/03 04:02:23;;;;;;;30.43;17.03;;;0.40;99.90;;;;;;5031889;28;20260;-72
2020/12/03 04:04:51;;;;;;;29.93;17.30;;;0.30;99.90;;;;;;5033801;28;20256;-71
2020/12/03 04:07:17;;;;;;;28.10;16.43;;;0.30;99.90;;;;;;5033637;28;20234;-72
2020/12/03 04:09:44;;;;;;;30.07;17.50;;;0.30;99.90;;;;;;5030901;28;20203;-72
2020/12/03 04:12:11;;;;;;;33.20;18.97;;;0.30;99.90;;;;;;5033456;28;20679;-72
2020/12/03 04:14:38;;;;;;;28.20;16.77;;;0.30;99.90;;;;;;5034110;28;20261;-71
2020/12/03 04:17:05;;;;;;;29.67;16.77;;;0.30;99.90;;;;;;5033960;28;20230;-72
2020/12/03 04:19:32;;;;;;;26.87;16.30;;;0.30;99.90;;;;;;5024751;28;20664;-72
2020/12/03 04:21:58;;;;;;;33.70;18.13;;;0.30;99.90;;;;;;5021387;28;20203;-72
2020/12/03 04:24:25;;;;;;;28.70;17.10;;;0.20;99.90;;;;;;5033044;28;20925;-72
2020/12/03 04:26:51;;;;;;;26.40;16.07;;;0.20;99.90;;;;;;5033420;28;20268;-73
2020/12/03 04:29:18;;;;;;;29.40;16.17;;;0.20;99.90;;;;;;5026835;28;20213;-73
2020/12/03 04:31:46;;;;;;;25.67;15.00;;;0.20;99.90;;;;;;5044458;28;20214;-72
2020/12/03 04:34:13;;;;;;;24.33;15.00;;;0.20;99.90;;;;;;5032906;28;20231;-73
2020/12/03 04:36:39;;;;;;;26.23;13.93;;;0.20;99.90;;;;;;5053750;28;20288;-72
2020/12/03 04:39:06;;;;;;;26.60;14.80;;;0.20;99.90;;;;;;5060913;28;20206;-71
2020/12/03 04:41:34;;;;;;;24.47;14.37;;;0.20;99.90;;;;;;5088043;28;20227;-71
2020/12/03 04:44:06;;;;;;;21.80;13.27;;;0.20;99.90;;;;;;5085533;28;20692;-73
2020/12/03 04:46:37;;;;;;;23.40;13.83;;;0.20;99.90;;;;;;5073454;28;20206;-73
2020/12/03 04:49:25;;;;;;;25.27;14.57;;;0.20;99.90;;;;;;5073347;28;20212;-71
2020/12/03 04:52:25;;;;;;;24.67;14.13;;;0.20;99.90;;;;;;5070041;28;20224;-71
2020/12/03 04:55:13;;;;;;;21.87;12.73;;;0.20;99.90;;;;;;5072830;28;20213;-71
2020/12/03 04:57:47;;;;;;;23.57;13.27;;;0.30;99.90;;;;;;5077366;28;20248;-71
2020/12/03 05:00:26;;;;;;;29.50;15.47;;;0.30;99.90;;;;;;5068458;28;20197;-71
2020/12/03 05:03:27;;;;;;;21.70;13.63;;;0.30;99.90;;;;;;5073991;28;20646;-70
2020/12/03 05:06:11;;;;;;;21.43;12.93;;;0.20;99.90;;;;;;5073654;28;20204;-70
2020/12/03 05:08:43;;;;;;;26.50;13.40;;;0.20;99.90;;;;;;5080801;28;20650;-72
2020/12/03 05:11:19;;;;;;;24.57;14.23;;;0.20;99.90;;;;;;5066558;28;20201;-70
2020/12/03 05:13:49;;;;;;;24.03;13.37;;;0.20;99.90;;;;;;5070440;28;20213;-70
2020/12/03 05:16:21;;;;;;;25.37;13.83;;;0.20;99.90;;;;;;5063660;28;20210;-71
2020/12/03 05:18:54;;;;;;;22.00;12.73;;;0.30;99.90;;;;;;5069778;28;20247;-70
2020/12/03 05:21:25;;;;;;;22.60;14.00;;;0.30;99.90;;;;;;5074097;28;20288;-72
2020/12/03 05:23:52;;;;;;;29.03;14.17;;;0.40;99.90;;;;;;5082452;28;20230;-72
2020/12/03 05:26:21;;;;;;;22.60;13.63;;;0.40;99.90;;;;;;5079381;28;20642;-72
2020/12/03 05:28:53;;;;;;;29.67;14.87;;;0.30;99.90;;;;;;5080384;28;20248;-71
2020/12/03 05:31:35;;;;;;;22.60;13.27;;;0.30;99.90;;;;;;5077411;28;20618;-71
2020/12/03 05:34:08;;;;;;;21.63;13.10;;;0.30;99.90;;;;;;5080007;28;20229;-71
2020/12/03 05:36:38;;;;;;;30.57;15.17;;;0.30;99.90;;;;;;5072209;28;20328;-71
2020/12/03 05:39:08;;;;;;;25.57;13.80;;;0.30;99.90;;;;;;5074710;28;20239;-70
2020/12/03 05:41:39;;;;;;;21.00;12.93;;;0.30;99.90;;;;;;5073030;28;20237;-70
2020/12/03 05:44:19;;;;;;;25.53;13.10;;;0.30;99.90;;;;;;5077041;28;20197;-70
2020/12/03 05:46:46;;;;;;;20.27;12.30;;;0.30;99.90;;;;;;5073804;28;20223;-71
2020/12/03 05:49:20;;;;;;;23.53;13.27;;;0.30;99.90;;;;;;5085824;28;20566;-72
2020/12/03 05:52:03;;;;;;;23.40;13.23;;;0.30;99.90;;;;;;5071581;28;20217;-72
2020/12/03 05:54:30;;;;;;;20.97;12.63;;;0.20;99.90;;;;;;5075919;28;20629;-70
2020/12/03 05:56:56;;;;;;;22.30;13.10;;;0.20;99.90;;;;;;5076802;28;20213;-71
2020/12/03 05:59:25;;;;;;;20.93;11.93;;;0.10;99.90;;;;;;5075107;28;20262;-71
2020/12/03 06:02:01;;;;;;;24.07;12.60;;;0.10;99.90;;;;;;5075315;28;20282;-71
2020/12/03 06:04:35;;;;;;;20.30;12.00;;;0.00;99.90;;;;;;5076955;28;20611;-71
2020/12/03 06:07:23;;;;;;;21.43;12.93;;;0.00;99.90;;;;;;5075953;28;20201;-71
2020/12/03 06:10:14;;;;;;;23.13;12.83;;;-0.10;99.90;;;;;;5078392;28;20239;-71
2020/12/03 06:12:57;;;;;;;18.90;11.90;;;-0.10;99.90;;;;;;5081984;28;20743;-72
2020/12/03 06:15:35;;;;;;;20.20;12.03;;;-0.10;99.90;;;;;;5067663;28;20615;-72
2020/12/03 06:18:41;;;;;;;23.70;12.93;;;-0.10;99.90;;;;;;5076503;28;20224;-72
2020/12/03 06:21:44;;;;;;;20.37;12.17;;;-0.20;99.90;;;;;;5063518;28;20208;-70
2020/12/03 06:24:35;;;;;;;21.10;12.60;;;-0.20;99.90;;;;;;5070217;28;20238;-70
2020/12/03 06:27:18;;;;;;;24.70;12.70;;;-0.10;99.90;;;;;;5072251;28;20234;-71
2020/12/03 06:29:57;;;;;;;22.77;11.80;;;-0.20;99.90;;;;;;5073216;28;20204;-71
2020/12/03 06:33:17;;;;;;;22.70;12.33;;;-0.20;99.90;;;;;;5076559;28;20236;-72
2020/12/03 06:35:49;;;;;;;23.47;12.77;;;-0.30;99.90;;;;;;5079790;28;20228;-70
2020/12/03 06:38:21;;;;;;;23.87;12.20;;;-0.30;99.90;;;;;;5079705;28;20201;-72
2020/12/03 06:40:58;;;;;;;24.87;12.23;;;-0.30;99.90;;;;;;5078808;28;20208;-73
2020/12/03 06:43:32;;;;;;;22.87;12.67;;;-0.20;99.90;;;;;;5073744;28;20205;-71
2020/12/03 06:46:26;;;;;;;20.53;11.90;;;-0.30;99.90;;;;;;5074596;28;20255;-72
2020/12/03 06:49:12;;;;;;;21.80;12.10;;;-0.30;99.90;;;;;;5061449;28;20209;-71
2020/12/03 06:52:04;;;;;;;22.77;12.37;;;-0.30;99.90;;;;;;5075818;28;20250;-72
2020/12/03 06:54:46;;;;;;;21.33;12.43;;;-0.30;99.90;;;;;;5091660;28;20256;-72
2020/12/03 06:57:48;;;;;;;24.90;12.27;;;-0.30;99.90;;;;;;5074623;28;20292;-72
2020/12/03 07:00:46;;;;;;;25.27;13.23;;;-0.20;99.90;;;;;;5074748;28;20239;-71
2020/12/03 07:03:52;;;;;;;24.20;12.97;;;-0.20;99.90;;;;;;5074135;28;20201;-72
2020/12/03 07:06:51;;;;;;;24.47;12.27;;;-0.20;99.90;;;;;;5071392;28;20608;-71
2020/12/03 07:09:57;;;;;;;23.57;12.43;;;-0.20;99.90;;;;;;5075178;28;20209;-73
2020/12/03 07:12:50;;;;;;;22.50;12.27;;;-0.10;99.90;;;;;;5069146;28;20249;-71
2020/12/03 07:16:01;;;;;;;24.37;13.20;;;-0.20;99.90;;;;;;5065588;28;20202;-71
2020/12/03 07:19:18;;;;;;;25.03;13.13;;;-0.20;99.90;;;;;;5066931;28;20669;-73
2020/12/03 07:21:52;;;;;;;21.87;11.67;;;-0.20;99.90;;;;;;5065838;28;20708;-73
2020/12/03 07:24:23;;;;;;;22.97;13.73;;;-0.10;99.90;;;;;;5075529;28;20228;-71
2020/12/03 07:27:34;;;;;;;24.60;13.57;;;-0.10;99.90;;;;;;5069166;28;20666;-73
2020/12/03 07:30:07;;;;;;;21.67;12.13;;;-0.10;99.90;;;;;;5058608;28;20326;-73
2020/12/03 07:32:51;;;;;;;19.53;12.43;;;0.00;99.90;;;;;;5070882;28;20263;-73
2020/12/03 07:35:31;;;;;;;23.93;12.87;;;0.10;99.90;;;;;;5079523;28;20206;-73
2020/12/03 07:38:10;;;;;;;29.67;12.97;;;0.10;99.90;;;;;;5084318;28;20245;-71
2020/12/03 07:40:36;;;;;;;25.17;13.63;;;0.20;99.90;;;;;;5085885;28;20204;-70
2020/12/03 07:43:06;;;;;;;21.27;12.03;;;0.20;99.90;;;;;;5077848;28;20598;-69
2020/12/03 07:45:42;;;;;;;24.80;13.10;;;0.40;99.90;;;;;;5087768;28;20228;-71
2020/12/03 07:48:13;;;;;;;21.93;14.17;;;0.50;99.90;;;;;;5082406;28;20250;-71
2020/12/03 07:50:46;;;;;;;23.47;12.03;;;0.60;99.90;;;;;;5074816;28;20233;-71
2020/12/03 07:53:22;;;;;;;23.70;13.53;;;0.80;99.90;;;;;;5074539;28;20622;-70
2020/12/03 07:55:49;;;;;;;23.37;12.77;;;0.80;99.90;;;;;;5068230;28;20654;-74
2020/12/03 07:58:31;;;;;;;22.73;13.10;;;0.90;99.90;;;;;;5076602;28;20243;-71
2020/12/03 08:00:59;;;;;;;26.17;13.43;;;1.00;99.90;;;;;;5062016;28;20325;-71
2020/12/03 08:03:46;;;;;;;23.30;12.53;;;1.10;99.90;;;;;;5079985;28;20193;-71
2020/12/03 08:06:24;;;;;;;21.63;13.03;;;1.20;99.90;;;;;;5082199;28;20208;-72
2020/12/03 08:09:13;;;;;;;23.10;14.00;;;1.20;99.90;;;;;;5068546;28;20254;-71
2020/12/03 08:11:49;;;;;;;23.37;13.97;;;1.30;99.90;;;;;;5079893;28;20233;-73
2020/12/03 08:14:47;;;;;;;24.40;13.37;;;1.40;99.90;;;;;;5074306;28;20278;-71
2020/12/03 08:17:56;;;;;;;24.13;13.80;;;1.50;99.90;;;;;;5079633;28;20205;-72
2020/12/03 08:20:40;;;;;;;24.97;13.33;;;1.60;99.90;;;;;;5066374;28;20209;-73
2020/12/03 08:23:11;;;;;;;26.43;14.17;;;1.70;99.90;;;;;;5072972;28;20267;-71
2020/12/03 08:25:44;;;;;;;24.10;13.60;;;1.80;99.90;;;;;;5074866;28;20233;-69
2020/12/03 08:28:20;;;;;;;26.63;14.27;;;2.00;99.90;;;;;;5072725;28;20209;-71
2020/12/03 08:30:53;;;;;;;25.13;14.80;;;2.30;99.90;;;;;;5076033;28;20263;-73
2020/12/03 08:33:27;;;;;;;24.23;14.03;;;2.80;99.90;;;;;;5073280;28;20217;-73
2020/12/03 08:35:56;;;;;;;27.90;14.50;;;3.80;99.90;;;;;;5074622;28;20241;-72
2020/12/03 08:38:26;;;;;;;22.03;13.80;;;5.00;99.90;;;;;;5075317;28;20196;-73
2020/12/03 08:40:54;;;;;;;22.47;14.27;;;6.30;99.90;;;;;;5072324;28;20205;-72
2020/12/03 08:43:22;;;;;;;23.43;14.60;;;7.00;99.90;;;;;;5072198;28;20197;-70
2020/12/03 08:46:05;;;;;;;21.03;13.13;;;7.90;95.70;;;;;;5073886;28;20272;-72
2020/12/03 08:48:37;;;;;;;23.13;14.80;;;8.80;92.70;;;;;;5081288;28;20609;-71
2020/12/03 08:51:06;;;;;;;23.43;14.50;;;9.80;89.70;;;;;;5069875;28;20198;-71
2020/12/03 08:53:34;;;;;;;20.90;14.40;;;10.50;78.60;;;;;;5077421;28;20315;-69
2020/12/03 08:56:24;;;;;;;21.70;13.93;;;11.00;70.90;;;;;;5080322;28;20211;-72
2020/12/03 08:58:59;;;;;;;25.30;15.03;;;11.40;66.90;;;;;;5087400;28;20202;-73
2020/12/03 09:01:29;;;;;;;24.30;15.20;;;11.90;63.80;;;;;;5078243;28;20232;-73
2020/12/03 09:03:59;;;;;;;23.73;15.07;;;12.40;61.00;;;;;;5075443;28;20205;-74
2020/12/03 09:06:28;;;;;;;24.90;15.67;;;12.30;57.40;;;;;;5078851;28;20645;-72
2020/12/03 09:08:55;;;;;;;20.67;14.33;;;12.80;58.30;;;;;;5087297;28;20208;-75
2020/12/03 09:11:23;;;;;;;21.50;14.67;;;13.30;56.10;;;;;;5078143;28;20228;-72
2020/12/03 09:13:54;;;;;;;21.20;15.33;;;13.50;54.50;;;;;;5081325;28;20764;-72
2020/12/03 09:16:25;;;;;;;21.80;14.77;;;13.90;53.00;;;;;;5076887;28;20213;-72
2020/12/03 09:18:52;;;;;;;25.60;15.63;;;14.20;51.30;;;;;;5076849;28;20263;-71
2020/12/03 09:21:26;;;;;;;21.23;15.27;;;14.70;51.10;;;;;;5069967;28;20213;-71
2020/12/03 09:23:55;;;;;;;21.70;15.50;;;15.20;49.30;;;;;;5072693;28;20225;-71
2020/12/03 09:26:31;;;;;;;22.70;16.13;;;15.70;47.90;;;;;;5078555;28;20198;-71
2020/12/03 09:28:59;;;;;;;21.27;15.80;;;16.10;47.00;;;;;;5086870;28;20234;-71
2020/12/03 09:31:26;;;;;;;21.30;16.30;;;16.50;45.60;;;;;;5078391;28;20335;-71
2020/12/03 09:33:54;;;;;;;22.73;15.83;;;16.90;44.60;;;;;;5077490;28;20591;-71
2020/12/03 09:36:21;;;;;;;23.63;15.43;;;17.10;43.50;;;;;;5079144;28;20229;-68
2020/12/03 09:38:50;;;;;;;24.80;16.20;;;16.90;42.00;;;;;;5080264;28;20669;-69
2020/12/03 09:41:20;;;;;;;19.80;15.33;;;17.10;42.80;;;;;;5075389;28;20288;-69
2020/12/03 09:43:48;;;;;;;21.97;15.77;;;16.60;40.40;;;;;;5078791;28;20296;-69
2020/12/03 09:46:20;;;;;;;20.37;15.53;;;16.30;41.70;;;;;;5075424;28;20201;-70
2020/12/03 09:48:47;;;;;;;24.87;16.50;;;16.10;42.70;;;;;;5076277;28;20219;-69
2020/12/03 09:51:14;;;;;;;21.27;16.20;;;16.40;42.50;;;;;;5083069;28;20246;-69
2020/12/03 09:53:41;;;;;;;23.23;16.00;;;16.80;40.70;;;;;;5084346;28;20252;-68
2020/12/03 09:56:08;;;;;;;22.90;16.47;;;16.70;40.30;;;;;;5066611;28;20240;-69
2020/12/03 09:58:35;;;;;;;22.33;16.37;;;16.80;41.40;;;;;;5081645;28;20205;-69
2020/12/03 10:01:06;;;;;;;22.83;16.50;;;16.70;40.30;;;;;;5085948;28;20196;-69
2020/12/03 10:04:02;;;;;;;23.30;17.17;;;15.90;39.00;;;;;;5081813;28;20212;-70
2020/12/03 10:06:33;;;;;;;24.70;17.17;;;14.50;40.60;;;;;;5079590;28;20225;-70
2020/12/03 10:09:07;;;;;;;21.93;16.20;;;13.30;42.70;;;;;;5083294;28;20329;-70
2020/12/03 10:12:18;;;;;;;25.87;17.40;;;12.60;44.60;;;;;;5082075;28;20262;-71
2020/12/03 10:15:17;;;;;;;24.60;17.07;;;12.50;45.80;;;;;;5065626;28;20221;-69
2020/12/03 10:18:05;;;;;;;26.40;17.20;;;12.70;45.60;;;;;;5078590;28;20204;-73
2020/12/03 10:20:32;;;;;;;25.67;17.63;;;12.80;45.60;;;;;;5083810;28;20204;-73
2020/12/03 10:23:20;;;;;;;23.17;17.20;;;13.30;48.00;;;;;;5083276;28;20243;-72
2020/12/03 10:25:58;;;;;;;25.27;16.87;;;14.30;45.70;;;;;;5084838;28;20247;-70
2020/12/03 10:28:30;;;;;;;25.47;17.37;;;15.20;43.80;;;;;;5073407;28;20572;-70
2020/12/03 10:30:58;;;;;;;29.03;18.27;;;16.10;42.60;;;;;;5074226;28;20209;-72
2020/12/03 10:33:26;;;;;;;25.03;17.83;;;17.00;41.80;;;;;;5086150;28;20224;-72
2020/12/03 10:35:56;;;;;;;29.13;17.87;;;17.60;40.00;;;;;;5089041;28;20228;-72
2020/12/03 10:38:32;;;;;;;24.90;17.00;;;18.10;38.90;;;;;;5079894;28;20214;-71
2020/12/03 10:41:01;;;;;;;27.33;18.43;;;18.20;38.80;;;;;;5078951;28;20670;-71
2020/12/03 10:43:34;;;;;;;23.87;17.33;;;18.30;37.90;;;;;;5076212;28;20201;-70
2020/12/03 10:46:04;;;;;;;25.60;18.53;;;18.30;38.10;;;;;;5073921;28;20204;-70
2020/12/03 10:48:35;;;;;;;26.73;18.07;;;18.20;37.20;;;;;;5079792;28;20292;-69
2020/12/03 10:51:06;;;;;;;28.60;18.23;;;17.90;37.60;;;;;;5084315;28;20680;-69
2020/12/03 10:53:33;;;;;;;25.33;17.30;;;17.90;37.50;;;;;;5076847;28;20210;-71
2020/12/03 10:56:02;;;;;;;23.53;18.17;;;18.10;37.90;;;;;;5086597;28;20258;-70
2020/12/03 10:58:35;;;;;;;27.77;18.67;;;18.60;37.90;;;;;;5081416;28;20208;-70
2020/12/03 11:01:07;;;;;;;26.87;18.53;;;19.10;36.70;;;;;;5063523;28;20251;-71
2020/12/03 11:03:36;;;;;;;26.87;18.33;;;19.70;36.30;;;;;;5065992;28;21196;-70
2020/12/03 11:06:04;;;;;;;27.67;19.05;;;19.80;34.60;;;;;;5070098;28;20288;-71
2020/12/03 11:08:38;;;;;;;29.75;20.58;;;19.40;35.10;;;;;;5083150;28;20209;-70
2020/12/03 11:11:07;;;;;;;28.80;19.25;;;19.00;35.00;;;;;;5081019;28;20209;-70
2020/12/03 11:13:34;;;;;;;27.73;19.93;;;19.00;35.80;;;;;;5073089;28;20252;-70
2020/12/03 11:16:03;;;;;;;27.33;18.23;;;18.90;35.30;;;;;;5073706;28;20216;-70
2020/12/03 11:18:37;;;;;;;27.63;19.13;;;18.60;34.90;;;;;;5084571;28;20212;-70
2020/12/03 11:21:09;;;;;;;23.83;18.30;;;18.20;35.40;;;;;;5077811;28;20232;-70
2020/12/03 11:23:49;;;;;;;28.87;20.43;;;17.80;35.40;;;;;;5087334;27;20212;-70
2020/12/03 11:26:16;;;;;;;27.83;18.57;;;17.40;36.30;;;;;;5073120;28;20241;-70
2020/12/03 11:28:44;;;;;;;27.10;19.50;;;17.20;36.40;;;;;;5084536;28;20248;-70
2020/12/03 11:31:11;;;;;;;28.90;18.70;;;16.80;36.60;;;;;;5077841;28;20337;-71
2020/12/03 11:33:41;;;;;;;26.00;18.07;;;15.50;35.80;;;;;;5091067;28;20306;-70
2020/12/03 11:36:13;;;;;;;31.03;18.93;;;13.80;37.80;;;;;;5089440;28;20232;-71
2020/12/03 11:38:44;;;;;;;30.67;20.27;;;12.20;40.30;;;;;;5090279;28;20212;-70
2020/12/03 11:41:22;;;;;;;29.03;18.30;;;10.70;42.70;;;;;;5088692;28;20208;-71
2020/12/03 11:44:10;;;;;;;29.43;18.13;;;9.60;46.00;;;;;;5074618;28;20211;-71
2020/12/03 11:49:31;;;;;;;32.90;19.30;;;7.80;49.60;;;;;;5064291;28;20233;-71
2020/12/03 11:52:13;;;;;;;35.03;19.73;;;7.00;51.60;;;;;;5072008;28;20670;-70
2020/12/03 11:54:40;;;;;;;35.23;18.93;;;6.40;53.20;;;;;;5072711;28;21884;-71
2020/12/03 11:57:07;;;;;;;33.03;19.60;;;6.00;54.60;;;;;;5071184;28;20266;-72
2020/12/03 11:59:36;;;;;;;30.60;17.07;;;5.60;55.70;;;;;;5064383;28;20213;-72
2020/12/03 12:02:05;;;;;;;32.43;19.07;;;5.30;56.80;;;;;;5068191;28;20202;-71
2020/12/03 12:07:30;;;;;;;30.23;18.60;;;4.80;58.60;;;;;;5072949;28;20198;-72
2020/12/03 12:10:14;;;;;;;36.93;20.10;;;4.60;59.50;;;;;;5073214;28;20750;-72
2020/12/03 12:12:41;;;;;;;34.90;18.73;;;4.40;60.00;;;;;;5069875;28;20236;-72
2020/12/03 12:15:08;;;;;;;32.47;18.00;;;4.20;61.50;;;;;;5075524;28;20637;-72
2020/12/03 12:17:38;;;;;;;33.07;17.03;;;4.00;62.50;;;;;;5090160;28;20204;-72
2020/12/03 12:20:07;;;;;;;35.03;18.67;;;3.90;63.70;;;;;;5085242;28;20564;-72
2020/12/03 12:22:34;;;;;;;29.60;17.73;;;3.80;64.70;;;;;;5083390;28;20205;-72
2020/12/03 12:25:01;;;;;;;34.53;18.60;;;3.80;65.80;;;;;;5072823;28;20201;-72
2020/12/03 12:27:29;;;;;;;39.20;20.13;;;3.70;66.60;;;;;;5074825;28;20232;-70
2020/12/03 12:29:55;;;;;;;34.27;19.30;;;3.60;67.80;;;;;;5072392;28;20205;-70
2020/12/03 12:32:23;;;;;;;34.13;18.00;;;3.50;68.90;;;;;;5083824;28;20273;-71
2020/12/03 12:34:50;;;;;;;33.07;19.17;;;3.50;69.40;;;;;;5076797;28;20232;-70
2020/12/03 12:37:16;;;;;;;33.50;18.73;;;3.50;70.70;;;;;;5076591;28;20236;-70
2020/12/03 12:39:42;;;;;;;36.77;19.30;;;3.30;71.70;;;;;;5078549;28;20205;-70
2020/12/03 12:42:10;;;;;;;34.93;19.17;;;3.20;73.10;;;;;;5083760;28;20240;-69
2020/12/03 12:44:37;;;;;;;36.83;17.97;;;3.10;74.50;;;;;;5069634;28;20595;-69
2020/12/03 12:47:05;;;;;;;33.77;18.57;;;3.00;76.10;;;;;;5068821;28;20237;-69
2020/12/03 12:49:33;;;;;;;39.50;18.17;;;3.00;77.90;;;;;;5072689;28;20261;-70
2020/12/03 12:51:59;;;;;;;38.93;19.67;;;2.90;79.80;;;;;;5072833;28;20217;-70
2020/12/03 12:54:26;;;;;;;37.93;18.23;;;2.80;82.00;;;;;;5078306;28;20225;-71
2020/12/03 12:56:55;;;;;;;35.30;19.10;;;2.70;84.30;;;;;;5082929;28;20295;-70
2020/12/03 12:59:22;;;;;;;33.47;18.20;;;2.70;86.90;;;;;;5075089;28;20210;-70
2020/12/03 13:01:53;;;;;;;33.13;17.67;;;2.60;88.90;;;;;;5070888;28;20646;-73
2020/12/03 13:04:22;;;;;;;34.87;17.13;;;2.60;90.50;;;;;;5060473;28;20674;-73
2020/12/03 13:06:54;;;;;;;35.10;18.03;;;2.60;91.40;;;;;;5082260;28;20204;-72
2020/12/03 13:09:20;;;;;;;34.77;18.27;;;2.60;92.10;;;;;;5075061;28;20688;-72
2020/12/03 13:11:48;;;;;;;32.27;17.20;;;2.60;92.70;;;;;;5077607;28;20306;-70
2020/12/03 13:14:15;;;;;;;36.80;18.07;;;2.50;93.10;;;;;;5077893;28;20251;-70
2020/12/03 13:16:45;;;;;;;32.03;17.83;;;2.50;93.60;;;;;;5080455;28;20244;-72
2020/12/03 13:19:12;;;;;;;29.97;17.73;;;2.50;94.30;;;;;;5079977;28;20740;-72
2020/12/03 13:21:39;;;;;;;36.97;18.73;;;2.40;94.80;;;;;;5081077;28;20657;-73
2020/12/03 13:24:08;;;;;;;36.83;18.67;;;2.30;95.30;;;;;;5086523;28;20198;-72
2020/12/03 13:26:35;;;;;;;35.30;20.20;;;2.30;95.90;;;;;;5071052;28;20279;-73
2020/12/03 13:29:01;;;;;;;35.63;19.10;;;2.30;96.40;;;;;;5073677;28;20205;-74
2020/12/03 13:31:30;;;;;;;32.50;18.53;;;2.20;96.80;;;;;;5077253;28;20266;-72
2020/12/03 13:33:57;;;;;;;34.60;19.00;;;2.20;97.40;;;;;;5079444;28;20225;-69
2020/12/03 13:36:24;;;;;;;31.37;17.57;;;2.20;97.60;;;;;;5078174;28;20666;-70
2020/12/03 13:38:51;;;;;;;37.53;19.63;;;2.10;98.20;;;;;;5076045;28;20263;-73
2020/12/03 13:41:19;;;;;;;35.83;18.57;;;2.00;98.70;;;;;;5077451;28;20201;-70
2020/12/03 13:43:46;;;;;;;35.33;18.77;;;2.00;99.20;;;;;;5078881;28;20249;-71
2020/12/03 13:46:15;;;;;;;36.67;18.43;;;2.00;99.50;;;;;;5078056;28;20200;-71
2020/12/03 13:48:41;;;;;;;39.27;20.20;;;2.00;99.90;;;;;;5088462;28;20213;-70